Time;durP1;ratioP1;P1;durP2;ratioP2;P2;SDS_P1;SDS_P2;PMS_P1;PMS_P2;Temp;Humidity;BMP_temperature;BMP_pressure;BME280_temperature;BME280_humidity;BME280_pressure;Samples;Min_cycle;Max_cycle;Signal;HPM_P1;HPM_P2
2022/03/13 00:01:03;;;;;;;;;;;-0.40;63.90;;;;;;4965895;28;87704;-50
2022/03/13 00:03:32;;;;;;;;;;;-0.50;63.90;;;;;;4966198;28;86896;-49
2022/03/13 00:05:59;;;;;;;;;;;-0.50;63.90;;;;;;4966265;28;88239;-50
2022/03/13 00:08:31;;;;;;;;;;;-0.50;63.90;;;;;;4966359;28;86857;-50
2022/03/13 00:10:58;;;;;;;;;;;-0.50;63.80;;;;;;4966140;28;87263;-49
2022/03/13 00:13:26;;;;;;;;;;;-0.50;63.70;;;;;;4966029;28;87042;-49
2022/03/13 00:15:52;;;;;;;;;;;-0.50;63.70;;;;;;4967930;28;89552;-50
2022/03/13 00:18:18;;;;;;;;;;;-0.50;63.80;;;;;;4966119;28;88987;-49
2022/03/13 00:20:44;;;;;;;;;;;-0.50;63.80;;;;;;4965560;28;88643;-50
2022/03/13 00:23:10;;;;;;;;;;;-0.60;63.80;;;;;;4966015;28;86924;-49
2022/03/13 00:25:36;;;;;;;;;;;-0.60;63.80;;;;;;4966157;28;87195;-51
2022/03/13 00:28:03;;;;;;;;;;;-0.60;64.00;;;;;;4965610;28;87672;-50
2022/03/13 00:30:29;;;;;;;;;;;-0.60;63.90;;;;;;4965938;28;86943;-50
2022/03/13 00:32:55;;;;;;;;;;;-0.60;63.70;;;;;;4969348;28;87019;-51
2022/03/13 00:35:20;;;;;;;;;;;-0.60;63.70;;;;;;4968850;28;87515;-50
2022/03/13 00:37:47;;;;;;;;;;;-0.60;63.80;;;;;;4972434;28;86895;-53
2022/03/13 00:40:13;;;;;;;;;;;-0.60;64.00;;;;;;4968360;28;88501;-52
2022/03/13 00:42:39;;;;;;;;;;;-0.60;63.90;;;;;;4969088;28;86854;-49
2022/03/13 00:45:05;;;;;;;;;;;-0.70;63.90;;;;;;4969085;28;87817;-50
2022/03/13 00:47:30;;;;;;;;;;;-0.60;63.90;;;;;;4968592;28;89366;-51
2022/03/13 00:49:56;;;;;;;;;;;-0.70;63.80;;;;;;4968822;28;87551;-52
2022/03/13 00:52:21;;;;;;;;;;;-0.70;63.80;;;;;;4969265;28;87027;-51
2022/03/13 00:54:47;;;;;;;;;;;-0.70;63.80;;;;;;4968183;28;87320;-49
2022/03/13 00:57:13;;;;;;;;;;;-0.70;63.80;;;;;;4969380;28;86174;-49
2022/03/13 00:59:39;;;;;;;;;;;-0.70;63.90;;;;;;4971438;28;87103;-51
2022/03/13 01:02:05;;;;;;;;;;;-0.70;63.90;;;;;;4968790;28;86912;-52
2022/03/13 01:04:31;;;;;;;;;;;-0.70;63.90;;;;;;4968322;28;87987;-53
2022/03/13 01:06:56;;;;;;;;;;;-0.80;63.90;;;;;;4968772;28;87339;-50
2022/03/13 01:09:22;;;;;;;;;;;-0.80;63.80;;;;;;4969077;28;86992;-49
2022/03/13 01:11:48;;;;;;;;;;;-0.80;63.70;;;;;;4968975;28;86898;-49
2022/03/13 01:14:15;;;;;;;;;;;-0.80;64.40;;;;;;4968293;28;88709;-49
2022/03/13 01:16:41;;;;;;;;;;;-0.80;63.80;;;;;;4968784;28;86840;-50
2022/03/13 01:19:07;;;;;;;;;;;-0.80;63.80;;;;;;4968547;28;87191;-49
2022/03/13 01:21:34;;;;;;;;;;;-0.90;63.70;;;;;;4971842;28;86823;-50
2022/03/13 01:23:59;;;;;;;;;;;-0.80;63.90;;;;;;4968564;28;87372;-52
2022/03/13 01:26:25;;;;;;;;;;;-0.80;63.70;;;;;;4968166;28;88390;-49
2022/03/13 01:28:51;;;;;;;;;;;-0.90;63.70;;;;;;4968264;28;87887;-50
2022/03/13 01:31:19;;;;;;;;;;;-0.80;63.90;;;;;;4968405;28;87837;-50
2022/03/13 01:33:45;;;;;;;;;;;-0.80;63.70;;;;;;4967969;28;87747;-51
2022/03/13 01:36:11;;;;;;;;;;;-0.90;63.80;;;;;;4968663;28;86898;-49
2022/03/13 01:38:37;;;;;;;;;;;-0.90;64.00;;;;;;4968754;28;86887;-49
2022/03/13 01:41:03;;;;;;;;;;;-0.90;63.80;;;;;;4968082;28;87596;-50
2022/03/13 01:43:31;;;;;;;;;;;-0.90;63.90;;;;;;4970151;28;87432;-48
2022/03/13 01:46:01;;;;;;;;;;;-1.00;63.80;;;;;;4968372;28;87916;-48
2022/03/13 01:48:27;;;;;;;;;;;-1.00;63.80;;;;;;4967690;28;86849;-50
2022/03/13 01:50:53;;;;;;;;;;;-0.90;63.80;;;;;;4968118;28;88029;-49
2022/03/13 01:53:21;;;;;;;;;;;-1.00;64.30;;;;;;4966919;28;88650;-49
2022/03/13 01:55:54;;;;;;;;;;;-1.00;63.90;;;;;;4967965;28;86921;-49
2022/03/13 01:58:21;;;;;;;;;;;-1.00;63.70;;;;;;4968394;28;87167;-52
2022/03/13 02:00:47;;;;;;;;;;;-1.00;63.80;;;;;;4967632;28;87848;-50
2022/03/13 02:03:13;;;;;;;;;;;-1.00;63.80;;;;;;4970882;28;86897;-49
2022/03/13 02:05:39;;;;;;;;;;;-1.10;63.70;;;;;;4967538;28;87646;-49
2022/03/13 02:08:18;;;;;;;;;;;-1.10;63.80;;;;;;4967877;28;86874;-50
2022/03/13 02:10:44;;;;;;;;;;;-1.10;63.80;;;;;;4968530;28;86722;-49
2022/03/13 02:13:11;;;;;;;;;;;-1.10;63.90;;;;;;4967488;28;88562;-50
2022/03/13 02:15:38;;;;;;;;;;;-1.10;63.90;;;;;;4967751;28;86887;-50
2022/03/13 02:18:04;;;;;;;;;;;-1.20;63.90;;;;;;4967486;28;88072;-51
2022/03/13 02:20:35;;;;;;;;;;;-1.10;64.00;;;;;;4967342;28;87716;-48
2022/03/13 02:23:02;;;;;;;;;;;-1.20;63.60;;;;;;4966852;28;87179;-49
2022/03/13 02:25:34;;;;;;;;;;;-1.20;63.80;;;;;;4970404;28;87194;-49
2022/03/13 02:28:00;;;;;;;;;;;-1.20;64.00;;;;;;4967536;28;86882;-48
2022/03/13 02:30:26;;;;;;;;;;;-1.20;63.90;;;;;;4967588;28;88046;-50
2022/03/13 02:32:52;;;;;;;;;;;-1.20;63.70;;;;;;4967186;28;87856;-50
2022/03/13 02:35:18;;;;;;;;;;;-1.20;63.70;;;;;;4967860;28;86281;-49
2022/03/13 02:37:44;;;;;;;;;;;-1.20;63.80;;;;;;4967530;28;87088;-48
2022/03/13 02:40:21;;;;;;;;;;;-1.20;63.80;;;;;;4966929;28;88660;-49
2022/03/13 02:42:47;;;;;;;;;;;-1.20;63.70;;;;;;4966763;28;87813;-51
2022/03/13 02:45:21;;;;;;;;;;;-1.20;63.70;;;;;;4967415;28;89057;-49
2022/03/13 02:47:47;;;;;;;;;;;-1.30;63.70;;;;;;4969270;28;88723;-50
2022/03/13 02:50:14;;;;;;;;;;;-1.30;63.70;;;;;;4967327;28;87016;-51
2022/03/13 02:52:41;;;;;;;;;;;-1.30;63.80;;;;;;4966886;28;88639;-50
2022/03/13 02:55:06;;;;;;;;;;;-1.30;63.90;;;;;;4966853;28;87095;-51
2022/03/13 02:57:35;;;;;;;;;;;-1.40;63.80;;;;;;4967382;28;86920;-50
2022/03/13 03:00:00;;;;;;;;;;;-1.40;64.00;;;;;;4967551;28;86213;-50
2022/03/13 03:02:26;;;;;;;;;;;-1.40;63.90;;;;;;4967397;28;86920;-50
2022/03/13 03:04:54;;;;;;;;;;;-1.40;63.90;;;;;;4967257;28;87332;-51
2022/03/13 03:07:20;;;;;;;;;;;-1.40;64.50;;;;;;4966054;28;88889;-51
2022/03/13 03:09:46;;;;;;;;;;;-1.40;64.00;;;;;;4969815;28;86910;-53
2022/03/13 03:12:11;;;;;;;;;;;-1.40;63.80;;;;;;4966829;28;86982;-50
2022/03/13 03:14:37;;;;;;;;;;;-1.40;63.90;;;;;;4967177;28;86854;-49
2022/03/13 03:17:03;;;;;;;;;;;-1.40;63.70;;;;;;4966978;28;87883;-48
2022/03/13 03:19:29;;;;;;;;;;;-1.50;63.80;;;;;;4966457;28;88587;-49
2022/03/13 03:21:54;;;;;;;;;;;-1.50;64.10;;;;;;4966861;28;87020;-52
2022/03/13 03:24:21;;;;;;;;;;;-1.50;63.90;;;;;;4967245;28;87659;-50
2022/03/13 03:26:47;;;;;;;;;;;-1.50;63.80;;;;;;4966564;28;87501;-49
2022/03/13 03:29:13;;;;;;;;;;;-1.50;63.90;;;;;;4966686;28;86860;-49
2022/03/13 03:31:40;;;;;;;;;;;-1.60;63.80;;;;;;4968558;28;88085;-50
2022/03/13 03:34:10;;;;;;;;;;;-1.50;63.90;;;;;;4966676;28;86909;-49
2022/03/13 03:36:40;;;;;;;;;;;-1.50;63.80;;;;;;4966647;28;87042;-48
2022/03/13 03:39:07;;;;;;;;;;;-1.60;63.80;;;;;;4966307;28;88611;-50
2022/03/13 03:41:32;;;;;;;;;;;-1.50;64.00;;;;;;4966577;28;86870;-49
2022/03/13 03:43:58;;;;;;;;;;;-1.50;63.90;;;;;;4966629;28;87317;-50
2022/03/13 03:46:24;;;;;;;;;;;-1.60;63.90;;;;;;4966235;28;87602;-49
2022/03/13 03:48:50;;;;;;;;;;;-1.60;64.10;;;;;;4966850;28;86167;-48
2022/03/13 03:51:15;;;;;;;;;;;-1.60;63.80;;;;;;4966794;28;87043;-50
2022/03/13 03:53:41;;;;;;;;;;;-1.60;63.80;;;;;;4968876;28;87640;-48
2022/03/13 03:56:07;;;;;;;;;;;-1.70;63.70;;;;;;4965975;28;87846;-49
2022/03/13 03:58:32;;;;;;;;;;;-1.70;64.00;;;;;;4966281;28;87515;-51
2022/03/13 04:00:59;;;;;;;;;;;-1.70;63.90;;;;;;4966689;28;86835;-53
2022/03/13 04:03:25;;;;;;;;;;;-1.70;64.10;;;;;;4966368;28;87898;-48
2022/03/13 04:05:50;;;;;;;;;;;-1.70;63.90;;;;;;4966103;28;88552;-48
2022/03/13 04:08:16;;;;;;;;;;;-1.70;63.90;;;;;;4969688;28;86836;-49
2022/03/13 04:10:42;;;;;;;;;;;-1.70;63.90;;;;;;4969919;28;86826;-49
2022/03/13 04:13:07;;;;;;;;;;;-1.70;63.90;;;;;;4972701;28;87691;-49
2022/03/13 04:15:33;;;;;;;;;;;-1.70;63.80;;;;;;4969779;28;86810;-52
2022/03/13 04:17:59;;;;;;;;;;;-1.80;63.80;;;;;;4969221;28;87650;-51
2022/03/13 04:20:24;;;;;;;;;;;-1.70;64.00;;;;;;4969014;28;88034;-49
2022/03/13 04:22:50;;;;;;;;;;;-1.80;63.90;;;;;;4969458;28;88130;-49
2022/03/13 04:25:16;;;;;;;;;;;-1.80;64.00;;;;;;4969373;28;87405;-48
2022/03/13 04:27:43;;;;;;;;;;;-1.80;64.00;;;;;;4969692;28;86889;-49
2022/03/13 04:30:09;;;;;;;;;;;-1.90;64.20;;;;;;4969421;28;88000;-48
2022/03/13 04:32:35;;;;;;;;;;;-1.90;64.10;;;;;;4969062;28;88662;-49
2022/03/13 04:35:00;;;;;;;;;;;-1.90;64.10;;;;;;4972183;28;86965;-49
2022/03/13 04:37:27;;;;;;;;;;;-1.90;64.00;;;;;;4969821;28;86622;-49
2022/03/13 04:39:53;;;;;;;;;;;-1.80;64.00;;;;;;4969227;28;86907;-50
2022/03/13 04:42:19;;;;;;;;;;;-1.90;64.10;;;;;;4969610;28;87108;-49
2022/03/13 04:44:45;;;;;;;;;;;-1.90;64.20;;;;;;4968499;28;88050;-48
2022/03/13 04:47:11;;;;;;;;;;;-1.90;64.10;;;;;;4968973;28;86874;-48
2022/03/13 04:49:36;;;;;;;;;;;-1.90;64.20;;;;;;4969512;28;87004;-49
2022/03/13 04:52:02;;;;;;;;;;;-2.00;64.30;;;;;;4968635;28;88669;-48
2022/03/13 04:54:28;;;;;;;;;;;-2.00;64.30;;;;;;4968984;28;86859;-49
2022/03/13 04:56:54;;;;;;;;;;;-1.90;64.10;;;;;;4971773;28;86854;-49
2022/03/13 04:59:20;;;;;;;;;;;-1.90;64.20;;;;;;4968913;28;86882;-51
2022/03/13 05:01:45;;;;;;;;;;;-2.00;64.00;;;;;;4969356;28;87036;-51
2022/03/13 05:04:11;;;;;;;;;;;-2.00;64.00;;;;;;4968539;28;88197;-49
2022/03/13 05:06:37;;;;;;;;;;;-2.00;64.30;;;;;;4969039;28;86903;-51
2022/03/13 05:09:04;;;;;;;;;;;-2.00;64.30;;;;;;4968229;28;87831;-50
2022/03/13 05:11:30;;;;;;;;;;;-2.00;64.30;;;;;;4968745;28;87574;-48
2022/03/13 05:13:55;;;;;;;;;;;-2.00;64.20;;;;;;4968583;28;86816;-48
2022/03/13 05:16:21;;;;;;;;;;;-2.00;64.20;;;;;;4969007;28;86886;-49
2022/03/13 05:18:46;;;;;;;;;;;-2.00;64.10;;;;;;4971170;28;89137;-50
2022/03/13 05:21:12;;;;;;;;;;;-2.10;64.30;;;;;;4968926;28;86760;-50
2022/03/13 05:23:38;;;;;;;;;;;-2.10;64.40;;;;;;4968207;28;88559;-50
2022/03/13 05:26:03;;;;;;;;;;;-2.10;64.10;;;;;;4969061;28;86181;-51
2022/03/13 05:28:29;;;;;;;;;;;-2.10;64.30;;;;;;4968540;28;86934;-49
2022/03/13 05:30:55;;;;;;;;;;;-2.00;64.20;;;;;;4968369;28;87377;-49
2022/03/13 05:33:20;;;;;;;;;;;-2.10;64.10;;;;;;4966636;28;87884;-48
2022/03/13 05:35:46;;;;;;;;;;;-2.10;64.10;;;;;;4968329;28;88784;-48
2022/03/13 05:38:12;;;;;;;;;;;-2.20;64.40;;;;;;4968135;28;87481;-50
2022/03/13 05:40:37;;;;;;;;;;;-2.30;64.30;;;;;;4971388;28;86858;-49
2022/03/13 05:43:04;;;;;;;;;;;-2.20;64.10;;;;;;4967878;28;88505;-48
2022/03/13 05:45:30;;;;;;;;;;;-2.20;64.10;;;;;;4968256;28;86908;-48
2022/03/13 05:47:57;;;;;;;;;;;-2.20;64.10;;;;;;4968083;28;87670;-48
2022/03/13 05:50:25;;;;;;;;;;;-2.30;64.20;;;;;;4967639;28;87019;-48
2022/03/13 05:52:53;;;;;;;;;;;-2.20;64.20;;;;;;4968119;28;86966;-48
2022/03/13 05:55:19;;;;;;;;;;;-2.20;64.20;;;;;;4967928;28;87293;-49
2022/03/13 05:57:45;;;;;;;;;;;-2.20;64.10;;;;;;4966926;28;89439;-49
2022/03/13 06:00:12;;;;;;;;;;;-2.10;64.10;;;;;;4967901;28;86874;-48
2022/03/13 06:02:39;;;;;;;;;;;-2.20;64.10;;;;;;4970499;28;87232;-50
2022/03/13 06:05:06;;;;;;;;;;;-2.20;64.40;;;;;;4967930;28;86899;-49
2022/03/13 06:07:32;;;;;;;;;;;-2.10;64.20;;;;;;4968060;28;88006;-50
2022/03/13 06:10:02;;;;;;;;;;;-2.10;64.00;;;;;;4967329;28;88442;-49
2022/03/13 06:12:31;;;;;;;;;;;-2.10;64.10;;;;;;4967886;28;87132;-49
2022/03/13 06:14:58;;;;;;;;;;;-2.10;63.90;;;;;;4968222;28;87824;-49
2022/03/13 06:17:24;;;;;;;;;;;-2.10;64.10;;;;;;4967419;28;88520;-48
2022/03/13 06:19:50;;;;;;;;;;;-2.10;64.00;;;;;;4967062;28;87110;-49
2022/03/13 06:22:17;;;;;;;;;;;-2.10;64.00;;;;;;4969543;28;88022;-52
2022/03/13 06:24:43;;;;;;;;;;;-2.20;64.00;;;;;;4967710;28;86878;-48
2022/03/13 06:27:09;;;;;;;;;;;-2.10;64.00;;;;;;4966656;28;86916;-50
2022/03/13 06:29:35;;;;;;;;;;;-2.10;64.10;;;;;;4966572;28;88626;-50
2022/03/13 06:32:01;;;;;;;;;;;-2.10;64.00;;;;;;4967488;28;86859;-48
2022/03/13 06:34:27;;;;;;;;;;;-2.10;64.00;;;;;;4967810;28;86919;-48
2022/03/13 06:36:52;;;;;;;;;;;-2.10;64.10;;;;;;4967376;28;87468;-51
2022/03/13 06:39:18;;;;;;;;;;;-2.10;64.00;;;;;;4967934;28;86529;-51
2022/03/13 06:41:44;;;;;;;;;;;-2.10;64.00;;;;;;4967698;28;87179;-51
2022/03/13 06:44:09;;;;;;;;;;;-2.10;64.00;;;;;;4969981;28;88560;-50
2022/03/13 06:46:35;;;;;;;;;;;-2.10;64.00;;;;;;4967016;28;87820;-52
2022/03/13 06:49:03;;;;;;;;;;;-2.20;64.20;;;;;;4966679;28;88588;-52
2022/03/13 06:51:28;;;;;;;;;;;-2.10;64.00;;;;;;4967280;28;87219;-51
2022/03/13 06:53:55;;;;;;;;;;;-2.10;64.10;;;;;;4967185;28;87968;-53
2022/03/13 06:56:21;;;;;;;;;;;-2.20;64.10;;;;;;4966880;28;87615;-49
2022/03/13 06:58:47;;;;;;;;;;;-2.20;64.10;;;;;;4967607;28;86918;-48
2022/03/13 07:01:12;;;;;;;;;;;-2.20;64.00;;;;;;4967241;28;88030;-48
2022/03/13 07:03:38;;;;;;;;;;;-2.10;64.00;;;;;;4967225;28;87684;-50
2022/03/13 07:06:04;;;;;;;;;;;-2.10;64.10;;;;;;4969021;28;87035;-49
2022/03/13 07:08:31;;;;;;;;;;;-2.10;64.00;;;;;;4966738;28;88513;-48
2022/03/13 07:10:59;;;;;;;;;;;-2.10;64.00;;;;;;4966391;28;87739;-49
2022/03/13 07:13:26;;;;;;;;;;;-2.10;64.10;;;;;;4966907;28;88806;-49
2022/03/13 07:15:52;;;;;;;;;;;-2.10;64.00;;;;;;4966523;28;88568;-48
2022/03/13 07:18:18;;;;;;;;;;;-2.10;64.10;;;;;;4966836;28;86859;-48
2022/03/13 07:20:44;;;;;;;;;;;-2.10;64.00;;;;;;4967115;28;86902;-48
2022/03/13 07:23:09;;;;;;;;;;;-2.20;64.10;;;;;;4966406;28;88454;-48
2022/03/13 07:25:35;;;;;;;;;;;-2.10;64.10;;;;;;4967005;28;86899;-49
2022/03/13 07:28:00;;;;;;;;;;;-2.20;64.20;;;;;;4969813;28;87888;-48
2022/03/13 07:30:26;;;;;;;;;;;-2.10;64.30;;;;;;4966965;28;86805;-50
2022/03/13 07:32:52;;;;;;;;;;;-2.20;64.30;;;;;;4967118;28;87122;-48
2022/03/13 07:35:17;;;;;;;;;;;-2.10;64.30;;;;;;4965470;28;89659;-48
2022/03/13 07:37:43;;;;;;;;;;;-2.20;64.30;;;;;;4966884;28;86861;-49
2022/03/13 07:40:09;;;;;;;;;;;-2.20;65.00;;;;;;4966922;28;86903;-48
2022/03/13 07:42:35;;;;;;;;;;;-2.20;64.50;;;;;;4968795;28;88656;-49
2022/03/13 07:45:01;;;;;;;;;;;-2.20;64.60;;;;;;4969996;28;86985;-48
2022/03/13 07:47:27;;;;;;;;;;;-2.20;64.70;;;;;;4969807;28;87058;-50
2022/03/13 07:49:53;;;;;;;;;;;-2.30;64.60;;;;;;4972495;28;89172;-49
2022/03/13 07:52:19;;;;;;;;;;;-2.30;64.70;;;;;;4970422;28;87762;-50
2022/03/13 07:54:44;;;;;;;;;;;-2.30;65.10;;;;;;4969585;28;88534;-49
2022/03/13 07:57:10;;;;;;;;;;;-2.30;65.00;;;;;;4970004;28;86875;-48
2022/03/13 07:59:35;;;;;;;;;;;-2.30;65.10;;;;;;4969415;28;88003;-49
2022/03/13 08:02:02;;;;;;;;;;;-2.40;65.30;;;;;;4969751;28;87458;-48
2022/03/13 08:04:28;;;;;;;;;;;-2.30;65.10;;;;;;4969707;28;86925;-51
2022/03/13 08:06:53;;;;;;;;;;;-2.30;64.90;;;;;;4969836;28;87937;-49
2022/03/13 08:09:19;;;;;;;;;;;-2.30;65.20;;;;;;4969242;28;88851;-49
2022/03/13 08:11:45;;;;;;;;;;;-2.30;65.30;;;;;;4972484;28;86952;-48
2022/03/13 08:14:12;;;;;;;;;;;-2.30;65.30;;;;;;4969213;28;88773;-49
2022/03/13 08:16:38;;;;;;;;;;;-2.20;65.20;;;;;;4970170;28;86179;-48
2022/03/13 08:19:05;;;;;;;;;;;-2.20;65.10;;;;;;4969577;28;87232;-48
2022/03/13 08:21:31;;;;;;;;;;;-2.30;64.90;;;;;;4969198;28;87653;-50
2022/03/13 08:23:57;;;;;;;;;;;-2.30;65.40;;;;;;4968977;28;88145;-49
2022/03/13 08:26:23;;;;;;;;;;;-2.20;65.30;;;;;;4969451;28;88166;-50
2022/03/13 08:28:49;;;;;;;;;;;-2.20;65.10;;;;;;4969157;28;88808;-49
2022/03/13 08:31:14;;;;;;;;;;;-2.20;65.10;;;;;;4972661;28;86874;-48
2022/03/13 08:33:42;;;;;;;;;;;-2.30;65.20;;;;;;4968961;28;88862;-49
2022/03/13 08:36:09;;;;;;;;;;;-2.30;65.50;;;;;;4969369;28;86874;-48
2022/03/13 08:38:34;;;;;;;;;;;-2.30;65.60;;;;;;4969593;28;86887;-49
2022/03/13 08:41:00;;;;;;;;;;;-2.30;65.70;;;;;;4969345;28;87874;-49
2022/03/13 08:43:26;;;;;;;;;;;-2.30;66.30;;;;;;4969261;28;86797;-50
2022/03/13 08:45:52;;;;;;;;;;;-2.30;65.80;;;;;;4969341;28;87248;-48
2022/03/13 08:48:18;;;;;;;;;;;-2.20;65.80;;;;;;4967870;28;88011;-50
2022/03/13 08:50:43;;;;;;;;;;;-2.30;65.70;;;;;;4969409;28;87030;-48
2022/03/13 08:53:09;;;;;;;;;;;-2.30;65.90;;;;;;4971371;28;86847;-49
2022/03/13 08:55:35;;;;;;;;;;;-2.30;65.90;;;;;;4968832;28;87180;-49
2022/03/13 08:58:00;;;;;;;;;;;-2.30;65.90;;;;;;4968925;28;87898;-48
2022/03/13 09:00:27;;;;;;;;;;;-2.20;65.90;;;;;;4968831;28;87439;-48
2022/03/13 09:02:54;;;;;;;;;;;-2.20;65.80;;;;;;4968876;28;86844;-52
2022/03/13 09:05:21;;;;;;;;;;;-2.20;66.00;;;;;;4969402;28;87226;-49
2022/03/13 09:07:47;;;;;;;;;;;-2.30;66.00;;;;;;4968433;28;88876;-50
2022/03/13 09:10:13;;;;;;;;;;;-2.30;66.10;;;;;;4968762;28;86876;-49
2022/03/13 09:12:39;;;;;;;;;;;-2.30;66.30;;;;;;4968363;28;88104;-51
2022/03/13 09:15:05;;;;;;;;;;;-2.30;66.30;;;;;;4971122;28;87485;-50
2022/03/13 09:17:31;;;;;;;;;;;-2.20;66.30;;;;;;4968638;28;87759;-49
2022/03/13 09:19:58;;;;;;;;;;;-2.20;66.40;;;;;;4968454;28;87398;-49
2022/03/13 09:22:30;;;;;;;;;;;-2.30;66.40;;;;;;4968602;28;87108;-48
2022/03/13 09:24:59;;;;;;;;;;;-2.20;66.20;;;;;;4968548;28;88015;-49
2022/03/13 09:27:26;;;;;;;;;;;-2.20;66.40;;;;;;4968133;28;88484;-49
2022/03/13 09:29:53;;;;;;;;;;;-2.20;66.50;;;;;;4968893;28;86412;-50
2022/03/13 09:32:19;;;;;;;;;;;-2.20;66.40;;;;;;4968463;28;87317;-49
2022/03/13 09:34:45;;;;;;;;;;;-2.10;66.90;;;;;;4967910;28;88607;-50
2022/03/13 09:37:10;;;;;;;;;;;-2.10;66.30;;;;;;4970630;28;88156;-49
2022/03/13 09:39:36;;;;;;;;;;;-2.10;66.20;;;;;;4967979;28;88434;-53
2022/03/13 09:42:03;;;;;;;;;;;-2.10;66.40;;;;;;4968315;28;87199;-51
2022/03/13 09:44:28;;;;;;;;;;;-2.10;66.30;;;;;;4968446;28;88024;-49
2022/03/13 09:46:54;;;;;;;;;;;-2.10;66.40;;;;;;4967818;28;88004;-48
2022/03/13 09:49:21;;;;;;;;;;;-2.10;66.40;;;;;;4968010;28;87030;-48
2022/03/13 09:51:46;;;;;;;;;;;-2.10;66.60;;;;;;4968212;28;88173;-49
2022/03/13 09:54:13;;;;;;;;;;;-2.10;66.50;;;;;;4968397;28;86151;-48
2022/03/13 09:56:39;;;;;;;;;;;-2.10;66.50;;;;;;4968057;28;86894;-48
2022/03/13 09:59:04;;;;;;;;;;;-2.00;66.50;;;;;;4970407;28;88008;-49
2022/03/13 10:01:30;;;;;;;;;;;-2.00;66.60;;;;;;4967406;28;87782;-49
2022/03/13 10:03:56;;;;;;;;;;;-2.00;66.50;;;;;;4967176;28;87937;-48
2022/03/13 10:06:22;;;;;;;;;;;-1.90;66.50;;;;;;4967760;28;86877;-48
2022/03/13 10:08:48;;;;;;;;;;;-1.90;66.40;;;;;;4967976;28;87002;-48
2022/03/13 10:11:14;;;;;;;;;;;-1.90;66.40;;;;;;4967837;28;86989;-49
2022/03/13 10:13:40;;;;;;;;;;;-1.90;66.60;;;;;;4967447;28;87706;-49
2022/03/13 10:16:15;;;;;;;;;;;-1.80;66.40;;;;;;4967681;28;86920;-49
2022/03/13 10:18:40;;;;;;;;;;;-1.80;66.40;;;;;;4970799;28;87902;-49
2022/03/13 10:21:13;;;;;;;;;;;-1.80;66.80;;;;;;4968125;28;86855;-49
2022/03/13 10:23:40;;;;;;;;;;;-1.80;66.80;;;;;;4967722;28;88013;-50
2022/03/13 10:26:06;;;;;;;;;;;-1.70;66.90;;;;;;4966663;28;88642;-49
2022/03/13 10:28:33;;;;;;;;;;;-1.70;67.00;;;;;;4967590;28;86921;-49
2022/03/13 10:30:58;;;;;;;;;;;-1.80;67.20;;;;;;4967654;28;87204;-49
2022/03/13 10:33:28;;;;;;;;;;;-1.70;67.30;;;;;;4967334;28;87526;-48
2022/03/13 10:36:07;;;;;;;;;;;-1.70;67.40;;;;;;4967462;28;86969;-49
2022/03/13 10:38:34;;;;;;;;;;;-1.70;67.60;;;;;;4967433;28;87922;-49
2022/03/13 10:41:00;;;;;;;;;;;-1.70;67.60;;;;;;4969969;28;88381;-49
2022/03/13 10:43:29;;;;;;;;;;;-1.70;67.40;;;;;;4968115;28;86748;-49
2022/03/13 10:45:56;;;;;;;;;;;-1.60;67.30;;;;;;4966879;28;88409;-48
2022/03/13 10:48:21;;;;;;;;;;;-1.60;67.40;;;;;;4967035;28;86906;-49
2022/03/13 10:50:48;;;;;;;;;;;-1.60;67.40;;;;;;4966692;28;87795;-49
2022/03/13 10:53:14;;;;;;;;;;;-1.50;67.40;;;;;;4966834;28;87660;-49
2022/03/13 10:55:43;;;;;;;;;;;-1.50;67.30;;;;;;4967212;28;86828;-48
2022/03/13 10:58:08;;;;;;;;;;;-1.50;67.40;;;;;;4967091;28;87132;-49
2022/03/13 11:00:34;;;;;;;;;;;-1.50;67.10;;;;;;4966852;28;87426;-49
2022/03/13 11:03:14;;;;;;;;;;;-1.40;67.10;;;;;;4969949;28;87031;-49
2022/03/13 11:05:40;;;;;;;;;;;-1.40;67.10;;;;;;4966635;28;88834;-49
2022/03/13 11:08:09;;;;;;;;;;;-1.50;67.30;;;;;;4967428;28;86099;-49
2022/03/13 11:10:38;;;;;;;;;;;-1.50;67.60;;;;;;4966952;28;87117;-49
2022/03/13 11:13:04;;;;;;;;;;;-1.40;67.50;;;;;;4966542;28;87676;-49
2022/03/13 11:15:30;;;;;;;;;;;-1.40;67.20;;;;;;4965944;28;87928;-49
2022/03/13 11:17:56;;;;;;;;;;;-1.40;67.20;;;;;;4966899;28;89024;-52
2022/03/13 11:20:24;;;;;;;;;;;-1.30;67.30;;;;;;4966602;28;88487;-49
2022/03/13 11:22:49;;;;;;;;;;;-1.40;67.20;;;;;;4966797;28;86911;-48
2022/03/13 11:25:15;;;;;;;;;;;-1.30;67.30;;;;;;4969255;28;88132;-49
2022/03/13 11:27:42;;;;;;;;;;;-1.30;67.40;;;;;;4967089;28;86934;-49
2022/03/13 11:30:12;;;;;;;;;;;-1.30;67.20;;;;;;4966133;28;87265;-49
2022/03/13 11:32:38;;;;;;;;;;;-1.30;67.10;;;;;;4966893;28;86979;-49
2022/03/13 11:35:10;;;;;;;;;;;-1.20;67.20;;;;;;4966527;28;87188;-49
2022/03/13 11:37:36;;;;;;;;;;;-1.20;67.00;;;;;;4966614;28;87872;-49
2022/03/13 11:40:04;;;;;;;;;;;-1.20;66.90;;;;;;4965542;28;89557;-49
2022/03/13 11:42:49;;;;;;;;;;;-1.20;67.00;;;;;;4966631;28;86904;-49
2022/03/13 11:45:30;;;;;;;;;;;-1.10;67.00;;;;;;4966466;28;87174;-48
2022/03/13 11:47:56;;;;;;;;;;;-1.10;66.80;;;;;;4968483;28;89300;-49
2022/03/13 11:50:40;;;;;;;;;;;-1.00;66.50;;;;;;4966403;28;87970;-49
2022/03/13 11:53:26;;;;;;;;;;;-1.00;66.70;;;;;;4966042;28;88620;-49
2022/03/13 11:56:02;;;;;;;;;;;-1.00;66.70;;;;;;4965565;28;87304;-49
2022/03/13 11:58:46;;;;;;;;;;;-0.90;66.60;;;;;;4966336;28;86900;-50
2022/03/13 12:01:16;;;;;;;;;;;-0.90;66.60;;;;;;4965541;28;88582;-49
2022/03/13 12:04:01;;;;;;;;;;;-0.80;66.60;;;;;;4965047;28;87020;-49
2022/03/13 12:06:39;;;;;;;;;;;-0.90;66.60;;;;;;4965573;28;87840;-50
2022/03/13 12:09:05;;;;;;;;;;;-0.80;66.60;;;;;;4965238;28;88691;-50
2022/03/13 12:11:41;;;;;;;;;;;-0.80;66.60;;;;;;4968777;28;86941;-50
2022/03/13 12:14:07;;;;;;;;;;;-0.70;66.90;;;;;;4965334;28;88449;-53
2022/03/13 12:16:36;;;;;;;;;;;-0.70;66.80;;;;;;4965711;28;86839;-51
2022/03/13 12:19:03;;;;;;;;;;;-0.70;66.70;;;;;;4965797;28;87148;-49
2022/03/13 12:21:28;;;;;;;;;;;-0.60;66.60;;;;;;4965215;28;87687;-49
2022/03/13 12:23:57;;;;;;;;;;;-0.60;66.60;;;;;;4966123;28;86171;-52
2022/03/13 12:26:33;;;;;;;;;;;-0.60;66.50;;;;;;4965719;28;87164;-49
2022/03/13 12:28:59;;;;;;;;;;;-0.60;66.70;;;;;;4968517;28;88502;-51
2022/03/13 12:31:25;;;;;;;;;;;-0.60;66.70;;;;;;4971490;28;87823;-50
2022/03/13 12:33:53;;;;;;;;;;;-0.60;66.70;;;;;;4968518;28;87774;-51
2022/03/13 12:36:19;;;;;;;;;;;-0.50;66.00;;;;;;4968772;28;86891;-59
2022/03/13 12:38:49;;;;;;;;;;;-0.50;66.40;;;;;;4969074;28;86946;-49
2022/03/13 12:41:14;;;;;;;;;;;-0.50;66.60;;;;;;4968680;28;88449;-51
2022/03/13 12:43:54;;;;;;;;;;;-0.50;66.80;;;;;;4968994;28;86953;-49
2022/03/13 12:46:21;;;;;;;;;;;-0.40;66.70;;;;;;4969044;28;86909;-50
2022/03/13 12:48:58;;;;;;;;;;;-0.40;66.40;;;;;;4968996;28;86566;-51
2022/03/13 12:51:34;;;;;;;;;;;-0.40;66.50;;;;;;4968554;28;86896;-50
2022/03/13 12:54:25;;;;;;;;;;;-0.30;66.40;;;;;;4971124;28;87907;-49
2022/03/13 12:56:51;;;;;;;;;;;-0.30;66.60;;;;;;4956003;28;88197;-49
2022/03/13 12:59:22;;;;;;;;;;;-0.30;66.80;;;;;;4968526;28;88784;-49
2022/03/13 13:02:06;;;;;;;;;;;-0.30;66.50;;;;;;4968198;28;87146;-49
2022/03/13 13:04:32;;;;;;;;;;;-0.20;66.60;;;;;;4968416;28;86922;-50
2022/03/13 13:06:58;;;;;;;;;;;-0.20;66.50;;;;;;4968640;28;86821;-50
2022/03/13 13:09:30;;;;;;;;;;;-0.20;66.50;;;;;;4967859;28;88046;-50
2022/03/13 13:11:56;;;;;;;;;;;-0.20;66.60;;;;;;4968240;28;86891;-50
2022/03/13 13:14:24;;;;;;;;;;;-0.10;66.60;;;;;;4968752;28;87955;-49
2022/03/13 13:16:49;;;;;;;;;;;-0.10;66.40;;;;;;4970858;28;88701;-49
2022/03/13 13:19:15;;;;;;;;;;;-0.10;66.30;;;;;;4968715;28;86844;-50
2022/03/13 13:21:41;;;;;;;;;;;0.00;66.60;;;;;;4967383;28;88401;-49
2022/03/13 13:24:34;;;;;;;;;;;0.00;66.40;;;;;;4968328;28;86939;-50
2022/03/13 13:27:01;;;;;;;;;;;0.00;66.40;;;;;;4968319;28;87964;-50
2022/03/13 13:29:44;;;;;;;;;;;0.10;66.30;;;;;;4967736;28;88571;-51
2022/03/13 13:32:16;;;;;;;;;;;0.10;66.10;;;;;;4968076;28;86850;-53
2022/03/13 13:34:58;;;;;;;;;;;0.10;66.30;;;;;;4968179;28;86841;-49
2022/03/13 13:37:24;;;;;;;;;;;0.10;66.30;;;;;;4967913;28;87410;-51
2022/03/13 13:39:59;;;;;;;;;;;0.20;66.20;;;;;;4970335;28;86134;-50
2022/03/13 13:42:25;;;;;;;;;;;0.20;66.10;;;;;;4967393;28;87880;-50
2022/03/13 13:44:51;;;;;;;;;;;0.20;66.00;;;;;;4967884;28;86940;-49
2022/03/13 13:47:24;;;;;;;;;;;0.20;65.70;;;;;;4967534;28;87804;-51
2022/03/13 13:49:49;;;;;;;;;;;0.20;66.50;;;;;;4967307;28;88758;-50
2022/03/13 13:52:15;;;;;;;;;;;0.30;65.90;;;;;;4967925;28;87168;-50
2022/03/13 13:54:41;;;;;;;;;;;0.30;65.90;;;;;;4967724;28;87795;-51
2022/03/13 13:57:06;;;;;;;;;;;0.30;66.00;;;;;;4967266;28;88440;-53
2022/03/13 13:59:39;;;;;;;;;;;0.30;65.80;;;;;;4967905;28;86892;-51
2022/03/13 14:02:14;;;;;;;;;;;0.30;65.90;;;;;;4970194;28;88012;-50
2022/03/13 14:04:42;;;;;;;;;;;0.40;65.90;;;;;;4968356;28;86341;-50
2022/03/13 14:07:08;;;;;;;;;;;0.40;65.90;;;;;;4967544;28;86902;-50
2022/03/13 14:09:35;;;;;;;;;;;0.40;65.80;;;;;;4967251;28;86881;-49
2022/03/13 14:12:01;;;;;;;;;;;0.40;65.80;;;;;;4966901;28;87797;-51
2022/03/13 14:14:27;;;;;;;;;;;0.40;65.90;;;;;;4967346;28;88706;-50
2022/03/13 14:16:52;;;;;;;;;;;0.50;65.90;;;;;;4967128;28;87629;-49
2022/03/13 14:19:18;;;;;;;;;;;0.50;65.90;;;;;;4967486;28;86853;-51